Time;durP1;ratioP1;P1;durP2;ratioP2;P2;SDS_P1;SDS_P2;PMS_P1;PMS_P2;Temp;Humidity;BMP_temperature;BMP_pressure;BME280_temperature;BME280_humidity;BME280_pressure;Samples;Min_cycle;Max_cycle;Signal;HPM_P1;HPM_P2
2021/12/15 00:01:18;;;;;;;13.00;5.60;;;;;;;;;;7392649;19;20023;-72
2021/12/15 00:03:44;;;;;;;14.15;6.40;;;;;;;;;;7393246;19;19999;-72
2021/12/15 00:06:17;;;;;;;14.82;6.55;;;;;;;;;;7391374;19;19999;-72
2021/12/15 00:08:45;;;;;;;25.70;8.75;;;;;;;;;;7391343;19;20003;-72
2021/12/15 00:11:11;;;;;;;18.50;7.13;;;;;;;;;;7392234;19;20017;-72
2021/12/15 00:13:41;;;;;;;16.52;7.07;;;;;;;;;;7396614;19;20066;-72
2021/12/15 00:16:08;;;;;;;13.85;5.55;;;;;;;;;;7393155;19;20006;-72
2021/12/15 00:18:34;;;;;;;11.90;5.35;;;;;;;;;;7392002;19;20012;-72
2021/12/15 00:21:01;;;;;;;11.57;5.60;;;;;;;;;;7392048;19;20457;-72
2021/12/15 00:23:27;;;;;;;9.10;4.93;;;;;;;;;;7391960;19;20009;-72
2021/12/15 00:25:52;;;;;;;12.70;5.90;;;;;;;;;;7391192;19;19995;-72
2021/12/15 00:28:17;;;;;;;12.35;5.28;;;;;;;;;;7391576;19;19999;-72
2021/12/15 00:30:44;;;;;;;10.85;5.28;;;;;;;;;;7391524;19;19998;-72
2021/12/15 00:33:10;;;;;;;12.65;5.75;;;;;;;;;;7391983;19;20002;-72
2021/12/15 00:35:36;;;;;;;10.95;5.55;;;;;;;;;;7392240;19;20070;-72
2021/12/15 00:38:03;;;;;;;15.82;5.75;;;;;;;;;;7391131;19;20339;-72
2021/12/15 00:40:29;;;;;;;13.15;5.90;;;;;;;;;;7391134;19;20025;-72
2021/12/15 00:42:56;;;;;;;10.93;5.85;;;;;;;;;;7390168;19;20002;-72
2021/12/15 00:45:22;;;;;;;11.82;5.95;;;;;;;;;;7394617;19;20366;-72
2021/12/15 00:47:48;;;;;;;13.10;5.78;;;;;;;;;;7391266;19;20002;-72
2021/12/15 00:50:17;;;;;;;11.52;5.47;;;;;;;;;;7390482;19;20005;-72
2021/12/15 00:52:44;;;;;;;11.18;5.60;;;;;;;;;;7389345;19;19999;-72
2021/12/15 00:55:13;;;;;;;13.50;5.45;;;;;;;;;;7390704;19;20006;-72
2021/12/15 00:57:39;;;;;;;10.55;5.63;;;;;;;;;;7391490;19;20006;-72
2021/12/15 01:00:09;;;;;;;10.15;5.63;;;;;;;;;;7389803;19;19995;-72
2021/12/15 01:02:34;;;;;;;13.60;6.07;;;;;;;;;;7392345;19;20010;-71
2021/12/15 01:05:00;;;;;;;13.25;6.32;;;;;;;;;;7392285;19;20326;-72
2021/12/15 01:07:26;;;;;;;14.82;5.22;;;;;;;;;;7391541;19;20032;-71
2021/12/15 01:09:55;;;;;;;13.43;6.05;;;;;;;;;;7387712;19;19994;-72
2021/12/15 01:20:51;;;;;;;10.60;4.93;;;;;;;;;;7389876;19;20006;-72
2021/12/15 01:23:22;;;;;;;10.45;5.30;;;;;;;;;;7388518;19;20337;-71
2021/12/15 01:26:03;;;;;;;9.98;4.82;;;;;;;;;;7390170;19;19999;-72
2021/12/15 01:28:29;;;;;;;11.90;6.43;;;;;;;;;;7389363;19;20009;-72
2021/12/15 01:30:55;;;;;;;11.07;4.60;;;;;;;;;;7390118;19;20006;-72
2021/12/15 01:33:23;;;;;;;10.85;5.57;;;;;;;;;;7390288;19;20003;-72
2021/12/15 01:35:50;;;;;;;12.15;5.93;;;;;;;;;;7390181;19;20077;-72
2021/12/15 01:38:19;;;;;;;9.02;5.43;;;;;;;;;;7388576;19;20738;-72
2021/12/15 01:40:46;;;;;;;8.18;4.70;;;;;;;;;;7388671;19;20006;-71
2021/12/15 01:43:17;;;;;;;10.57;5.32;;;;;;;;;;7389686;19;20013;-72
2021/12/15 01:48:30;;;;;;;9.90;4.75;;;;;;;;;;7388379;19;20013;-72
2021/12/15 01:51:06;;;;;;;13.20;6.00;;;;;;;;;;7390124;19;19999;-72
2021/12/15 01:53:32;;;;;;;12.95;6.10;;;;;;;;;;7392787;19;19998;-72
2021/12/15 01:55:58;;;;;;;8.45;4.13;;;;;;;;;;7389257;19;19991;-72
2021/12/15 01:58:24;;;;;;;8.50;4.82;;;;;;;;;;7388034;19;20464;-72
2021/12/15 02:00:54;;;;;;;13.82;6.50;;;;;;;;;;7387967;19;20077;-72
2021/12/15 02:03:19;;;;;;;10.85;5.70;;;;;;;;;;7388568;19;20020;-72
2021/12/15 02:05:45;;;;;;;10.98;5.63;;;;;;;;;;7388266;19;20484;-72
2021/12/15 02:08:13;;;;;;;11.07;6.07;;;;;;;;;;7387797;19;20003;-72
2021/12/15 02:10:40;;;;;;;10.80;5.00;;;;;;;;;;7389010;19;20372;-72
2021/12/15 02:13:08;;;;;;;13.15;6.47;;;;;;;;;;7387097;19;20007;-72
2021/12/15 02:15:37;;;;;;;16.50;6.65;;;;;;;;;;7388996;19;20457;-72
2021/12/15 02:18:04;;;;;;;15.77;6.47;;;;;;;;;;7387573;19;20035;-72
2021/12/15 02:20:37;;;;;;;10.30;5.88;;;;;;;;;;7390647;19;20013;-72
2021/12/15 02:23:05;;;;;;;10.27;6.15;;;;;;;;;;7386626;19;20006;-72
2021/12/15 02:25:31;;;;;;;12.48;5.30;;;;;;;;;;7388148;19;20006;-72
2021/12/15 02:27:57;;;;;;;11.27;5.70;;;;;;;;;;7388699;19;19991;-72
2021/12/15 02:38:40;;;;;;;9.02;5.03;;;;;;;;;;7386240;19;20005;-72
2021/12/15 02:41:19;;;;;;;13.77;6.10;;;;;;;;;;7389801;19;20009;-72
2021/12/15 02:43:50;;;;;;;11.20;5.68;;;;;;;;;;7392292;19;20061;-71
2021/12/15 02:46:15;;;;;;;11.32;5.85;;;;;;;;;;7387000;19;20038;-71
2021/12/15 02:48:41;;;;;;;12.25;5.25;;;;;;;;;;7386398;19;19987;-72
2021/12/15 02:51:07;;;;;;;11.48;5.47;;;;;;;;;;7387561;19;20078;-72
2021/12/15 02:53:33;;;;;;;11.02;5.65;;;;;;;;;;7385218;19;20464;-71
2021/12/15 02:55:58;;;;;;;11.98;5.65;;;;;;;;;;7387484;19;19994;-72
2021/12/15 02:58:31;;;;;;;11.52;5.40;;;;;;;;;;7386188;19;19999;-71
2021/12/15 03:01:03;;;;;;;10.93;5.32;;;;;;;;;;7387402;19;20530;-71
2021/12/15 03:06:18;;;;;;;11.15;5.82;;;;;;;;;;7386362;19;20002;-72
2021/12/15 03:16:43;;;;;;;8.80;4.72;;;;;;;;;;7387607;19;20006;-72
2021/12/15 03:19:10;;;;;;;9.68;4.82;;;;;;;;;;7386245;19;20311;-72
2021/12/15 03:21:35;;;;;;;12.18;5.10;;;;;;;;;;7386436;19;20481;-71
2021/12/15 03:24:07;;;;;;;11.93;5.82;;;;;;;;;;7386706;19;20052;-72
2021/12/15 03:26:45;;;;;;;10.23;4.82;;;;;;;;;;7385527;19;19995;-72
2021/12/15 03:37:25;;;;;;;7.05;4.05;;;;;;;;;;7394336;19;20409;-72
2021/12/15 03:40:10;;;;;;;7.78;4.13;;;;;;;;;;7391870;19;20030;-72
2021/12/15 03:42:44;;;;;;;7.85;4.28;;;;;;;;;;7391582;19;20014;-71
2021/12/15 03:45:17;;;;;;;6.13;3.88;;;;;;;;;;7393152;19;20032;-72
2021/12/15 03:47:47;;;;;;;7.15;4.50;;;;;;;;;;7393451;19;19999;-72
2021/12/15 03:50:16;;;;;;;7.25;4.20;;;;;;;;;;7391204;19;19998;-71
2021/12/15 03:52:49;;;;;;;6.97;4.30;;;;;;;;;;7391067;19;19994;-72
2021/12/15 03:55:21;;;;;;;9.48;5.00;;;;;;;;;;7393129;19;20016;-72
2021/12/15 03:57:47;;;;;;;11.15;5.00;;;;;;;;;;7393692;19;19998;-72
2021/12/15 04:00:14;;;;;;;9.82;4.68;;;;;;;;;;7392310;19;20019;-72
2021/12/15 04:02:41;;;;;;;9.02;5.28;;;;;;;;;;7390908;19;20040;-72
2021/12/15 04:05:08;;;;;;;8.18;4.63;;;;;;;;;;7393083;19;20020;-72
2021/12/15 04:07:35;;;;;;;9.98;4.90;;;;;;;;;;7392936;19;20003;-72
2021/12/15 04:10:02;;;;;;;9.43;4.57;;;;;;;;;;7390842;19;20001;-72
2021/12/15 04:12:28;;;;;;;10.20;5.20;;;;;;;;;;7391558;19;20003;-72
2021/12/15 04:15:17;;;;;;;10.13;5.28;;;;;;;;;;7392560;19;19990;-72
2021/12/15 04:17:41;;;;;;;9.27;4.60;;;;;;;;;;7392673;19;19994;-72
2021/12/15 04:20:13;;;;;;;8.88;5.30;;;;;;;;;;7392141;19;20338;-72
2021/12/15 04:22:38;;;;;;;7.45;4.32;;;;;;;;;;7395356;19;20007;-72
2021/12/15 04:25:25;;;;;;;8.93;4.72;;;;;;;;;;7392503;19;20008;-72
2021/12/15 04:28:13;;;;;;;8.40;4.78;;;;;;;;;;7391674;19;20062;-71
2021/12/15 04:30:47;;;;;;;8.75;4.93;;;;;;;;;;7392182;19;20031;-72
2021/12/15 04:33:23;;;;;;;9.85;4.97;;;;;;;;;;7392472;19;20495;-72
2021/12/15 04:35:49;;;;;;;9.85;5.07;;;;;;;;;;7392070;19;20044;-72
2021/12/15 04:38:15;;;;;;;8.95;5.07;;;;;;;;;;7392699;19;20588;-72
2021/12/15 04:40:42;;;;;;;9.75;5.18;;;;;;;;;;7392153;19;19995;-72
2021/12/15 04:43:07;;;;;;;8.27;5.07;;;;;;;;;;7389595;19;19998;-72
2021/12/15 04:45:33;;;;;;;7.90;4.38;;;;;;;;;;7388198;19;20005;-72
2021/12/15 04:47:59;;;;;;;9.25;4.85;;;;;;;;;;7390763;19;20852;-72
2021/12/15 04:50:28;;;;;;;9.40;5.70;;;;;;;;;;7390428;19;20015;-72
2021/12/15 04:52:54;;;;;;;10.35;5.72;;;;;;;;;;7389701;19;20006;-72
2021/12/15 04:55:21;;;;;;;9.30;5.20;;;;;;;;;;7391024;19;19999;-71
2021/12/15 04:57:48;;;;;;;13.07;6.80;;;;;;;;;;7391784;19;20476;-72
2021/12/15 05:00:21;;;;;;;11.82;6.20;;;;;;;;;;7390424;19;19991;-72
2021/12/15 05:02:47;;;;;;;14.25;5.88;;;;;;;;;;7389547;19;20024;-72
2021/12/15 05:05:13;;;;;;;10.68;5.07;;;;;;;;;;7389802;19;20058;-72
2021/12/15 05:07:39;;;;;;;10.65;5.45;;;;;;;;;;7391080;19;19998;-72
2021/12/15 05:10:08;;;;;;;9.07;5.25;;;;;;;;;;7391036;19;20337;-72
2021/12/15 05:12:36;;;;;;;9.40;5.47;;;;;;;;;;7392719;19;19998;-72
2021/12/15 05:15:03;;;;;;;8.07;4.95;;;;;;;;;;7390586;19;19999;-71
2021/12/15 05:17:30;;;;;;;9.52;5.40;;;;;;;;;;7390621;19;20006;-72
2021/12/15 05:20:00;;;;;;;9.65;5.13;;;;;;;;;;7390100;19;19998;-72
2021/12/15 05:22:26;;;;;;;10.32;5.18;;;;;;;;;;7388212;19;20002;-72
2021/12/15 05:24:52;;;;;;;9.88;6.70;;;;;;;;;;7389366;19;20366;-72
2021/12/15 05:27:18;;;;;;;9.45;6.30;;;;;;;;;;7388355;19;20089;-72
2021/12/15 05:29:47;;;;;;;9.75;5.45;;;;;;;;;;7389616;19;19995;-72
2021/12/15 05:32:18;;;;;;;9.95;5.40;;;;;;;;;;7388291;19;20003;-72
2021/12/15 05:34:46;;;;;;;9.07;5.68;;;;;;;;;;7390397;19;19998;-72
2021/12/15 05:37:13;;;;;;;7.80;4.63;;;;;;;;;;7389594;19;19994;-72
2021/12/15 05:39:40;;;;;;;9.15;4.88;;;;;;;;;;7388080;19;20015;-72
2021/12/15 05:42:09;;;;;;;7.93;4.47;;;;;;;;;;7387728;19;19991;-72
2021/12/15 05:44:36;;;;;;;6.53;4.28;;;;;;;;;;7388833;19;20021;-72
2021/12/15 05:47:04;;;;;;;6.45;3.85;;;;;;;;;;7387811;19;19994;-72
2021/12/15 05:49:32;;;;;;;5.88;3.47;;;;;;;;;;7388406;19;20002;-72
2021/12/15 05:51:58;;;;;;;8.02;4.63;;;;;;;;;;7388388;19;19998;-72
2021/12/15 05:54:24;;;;;;;7.88;5.05;;;;;;;;;;7389327;19;19999;-72
2021/12/15 05:56:50;;;;;;;7.63;4.40;;;;;;;;;;7388496;19;19995;-72
2021/12/15 05:59:17;;;;;;;6.88;4.47;;;;;;;;;;7387053;19;20002;-72
2021/12/15 06:01:43;;;;;;;7.45;4.07;;;;;;;;;;7392726;19;19998;-73
2021/12/15 06:04:09;;;;;;;9.55;4.53;;;;;;;;;;7392756;19;19997;-72
2021/12/15 06:06:35;;;;;;;9.30;5.10;;;;;;;;;;7388102;19;19991;-72
2021/12/15 06:09:02;;;;;;;7.10;4.18;;;;;;;;;;7387383;19;19994;-72
2021/12/15 06:11:28;;;;;;;6.80;4.45;;;;;;;;;;7388493;19;20331;-72
2021/12/15 06:13:54;;;;;;;7.97;4.65;;;;;;;;;;7388237;19;20022;-72
2021/12/15 06:16:21;;;;;;;7.82;4.57;;;;;;;;;;7388968;19;19994;-72
2021/12/15 06:18:48;;;;;;;8.18;4.90;;;;;;;;;;7387032;19;19995;-72
2021/12/15 06:21:15;;;;;;;7.88;4.53;;;;;;;;;;7388089;19;20128;-72
2021/12/15 06:23:40;;;;;;;9.93;5.53;;;;;;;;;;7388501;19;19994;-72
2021/12/15 06:26:08;;;;;;;8.68;4.93;;;;;;;;;;7387880;19;20326;-72
2021/12/15 06:28:36;;;;;;;9.43;5.20;;;;;;;;;;7387084;19;20006;-72
2021/12/15 06:31:06;;;;;;;9.35;5.30;;;;;;;;;;7388385;19;20031;-72
2021/12/15 06:33:32;;;;;;;9.18;4.95;;;;;;;;;;7387916;19;20031;-72
2021/12/15 06:35:59;;;;;;;9.20;4.97;;;;;;;;;;7388318;19;20456;-72
2021/12/15 06:38:31;;;;;;;11.65;5.13;;;;;;;;;;7385389;19;20005;-72
2021/12/15 06:40:57;;;;;;;9.55;4.97;;;;;;;;;;7387356;19;20005;-72
2021/12/15 06:43:24;;;;;;;10.82;6.53;;;;;;;;;;7387540;19;20461;-72
2021/12/15 06:46:08;;;;;;;13.52;7.28;;;;;;;;;;7390370;19;19994;-72
2021/12/15 06:59:31;;;;;;;12.85;6.07;;;;;;;;;;7386597;19;20011;-72
2021/12/15 07:01:57;;;;;;;13.27;6.07;;;;;;;;;;7386597;19;19999;-72
2021/12/15 07:04:24;;;;;;;15.30;5.85;;;;;;;;;;7387610;19;19998;-72
2021/12/15 07:06:51;;;;;;;11.85;6.15;;;;;;;;;;7386249;19;20102;-72
2021/12/15 07:09:18;;;;;;;17.67;5.53;;;;;;;;;;7392800;19;19994;-72
2021/12/15 07:11:44;;;;;;;15.30;5.63;;;;;;;;;;7393570;19;20401;-72
2021/12/15 07:14:10;;;;;;;13.85;6.93;;;;;;;;;;7392771;19;19999;-72
2021/12/15 07:16:40;;;;;;;11.52;6.25;;;;;;;;;;7394703;19;20002;-72
2021/12/15 07:19:10;;;;;;;17.48;6.00;;;;;;;;;;7393995;19;19999;-72
2021/12/15 07:21:39;;;;;;;12.75;5.15;;;;;;;;;;7393832;19;19999;-71
2021/12/15 07:24:06;;;;;;;15.07;6.68;;;;;;;;;;7394348;19;20058;-72
2021/12/15 07:26:33;;;;;;;14.23;5.47;;;;;;;;;;7392680;19;19994;-71
2021/12/15 07:28:58;;;;;;;14.45;6.07;;;;;;;;;;7393516;19;20546;-72
2021/12/15 07:31:24;;;;;;;12.55;5.53;;;;;;;;;;7393698;19;20001;-72
2021/12/15 07:33:49;;;;;;;18.80;6.82;;;;;;;;;;7393728;19;19994;-71
2021/12/15 07:36:16;;;;;;;13.82;6.30;;;;;;;;;;7394301;19;19998;-72
2021/12/15 07:38:42;;;;;;;20.02;6.07;;;;;;;;;;7392533;19;20528;-72
2021/12/15 07:41:23;;;;;;;12.65;6.60;;;;;;;;;;7397323;19;20247;-72
2021/12/15 07:43:50;;;;;;;12.65;5.80;;;;;;;;;;7398719;19;20009;-72
2021/12/15 07:46:15;;;;;;;11.98;5.90;;;;;;;;;;7392760;19;19991;-72
2021/12/15 07:48:41;;;;;;;14.60;5.63;;;;;;;;;;7392875;19;20002;-72
2021/12/15 07:51:09;;;;;;;16.20;6.50;;;;;;;;;;7392140;19;19991;-71
2021/12/15 07:53:37;;;;;;;9.68;5.13;;;;;;;;;;7393095;19;19994;-72
2021/12/15 07:56:02;;;;;;;10.00;5.22;;;;;;;;;;7393089;19;20461;-72
2021/12/15 07:58:29;;;;;;;12.57;5.68;;;;;;;;;;7392655;19;20001;-72
2021/12/15 08:00:56;;;;;;;12.38;6.20;;;;;;;;;;7393318;19;19995;-71
2021/12/15 08:03:22;;;;;;;11.68;5.40;;;;;;;;;;7393404;19;19997;-72
2021/12/15 08:05:50;;;;;;;11.30;5.90;;;;;;;;;;7392493;19;19987;-72
2021/12/15 08:08:15;;;;;;;12.40;5.88;;;;;;;;;;7390371;19;19999;-71
2021/12/15 08:10:42;;;;;;;9.77;4.88;;;;;;;;;;7392910;19;20005;-72
2021/12/15 08:13:08;;;;;;;11.40;5.40;;;;;;;;;;7390903;19;19998;-72
2021/12/15 08:15:34;;;;;;;10.02;5.20;;;;;;;;;;7393408;19;20002;-72
2021/12/15 08:17:59;;;;;;;9.95;4.57;;;;;;;;;;7392852;19;20322;-71
2021/12/15 08:20:28;;;;;;;11.10;5.45;;;;;;;;;;7391628;19;19999;-71
2021/12/15 08:22:54;;;;;;;9.52;4.75;;;;;;;;;;7390270;19;20058;-72
2021/12/15 08:25:21;;;;;;;9.85;5.38;;;;;;;;;;7391973;19;20021;-71
2021/12/15 08:27:47;;;;;;;10.60;5.15;;;;;;;;;;7392011;19;20498;-72
2021/12/15 08:30:19;;;;;;;11.15;6.00;;;;;;;;;;7393629;19;20006;-72
2021/12/15 08:32:49;;;;;;;13.65;5.35;;;;;;;;;;7395315;19;20035;-71
2021/12/15 08:35:17;;;;;;;10.45;4.80;;;;;;;;;;7392443;19;20460;-70
2021/12/15 08:37:43;;;;;;;11.38;5.32;;;;;;;;;;7395726;19;20023;-71
2021/12/15 08:40:10;;;;;;;10.85;5.40;;;;;;;;;;7390384;19;20348;-70
2021/12/15 08:42:36;;;;;;;11.45;5.30;;;;;;;;;;7390126;19;20002;-70
2021/12/15 08:45:03;;;;;;;10.68;4.95;;;;;;;;;;7391057;19;20002;-70
2021/12/15 08:47:29;;;;;;;11.57;5.50;;;;;;;;;;7389342;19;20054;-70
2021/12/15 08:49:54;;;;;;;8.57;4.07;;;;;;;;;;7390657;19;20007;-70
2021/12/15 08:52:20;;;;;;;10.23;4.30;;;;;;;;;;7389866;19;20006;-71
2021/12/15 08:54:46;;;;;;;11.07;5.28;;;;;;;;;;7391199;19;20018;-70
2021/12/15 08:57:11;;;;;;;10.27;4.80;;;;;;;;;;7391997;19;20017;-71
2021/12/15 08:59:37;;;;;;;11.80;5.40;;;;;;;;;;7390548;19;19994;-70
2021/12/15 09:02:03;;;;;;;13.52;6.05;;;;;;;;;;7390328;19;19998;-71
2021/12/15 09:04:28;;;;;;;14.32;6.03;;;;;;;;;;7390520;19;19995;-70
2021/12/15 09:06:54;;;;;;;11.23;5.72;;;;;;;;;;7389002;19;19999;-71
2021/12/15 09:09:20;;;;;;;11.15;5.60;;;;;;;;;;7389518;19;19995;-70
2021/12/15 09:11:48;;;;;;;11.07;5.40;;;;;;;;;;7390231;19;20472;-70
2021/12/15 09:14:14;;;;;;;10.15;5.60;;;;;;;;;;7391017;19;20580;-70
2021/12/15 09:16:42;;;;;;;10.88;5.18;;;;;;;;;;7391071;19;20003;-70
2021/12/15 09:19:07;;;;;;;9.95;5.07;;;;;;;;;;7390947;19;20015;-70
2021/12/15 09:21:35;;;;;;;8.95;5.03;;;;;;;;;;7393396;19;19999;-70
2021/12/15 09:24:03;;;;;;;10.57;4.70;;;;;;;;;;7389706;19;20002;-71
2021/12/15 09:26:29;;;;;;;10.82;5.68;;;;;;;;;;7389221;19;20008;-70
2021/12/15 09:28:54;;;;;;;9.43;4.53;;;;;;;;;;7389521;19;19994;-72
2021/12/15 09:31:20;;;;;;;11.32;4.97;;;;;;;;;;7388121;19;20009;-71
2021/12/15 09:33:50;;;;;;;9.55;5.25;;;;;;;;;;7390429;19;20413;-70
2021/12/15 09:36:18;;;;;;;11.38;5.88;;;;;;;;;;7390243;19;19994;-70
2021/12/15 09:38:45;;;;;;;10.55;5.43;;;;;;;;;;7388084;19;20002;-70
2021/12/15 09:41:14;;;;;;;10.75;5.32;;;;;;;;;;7389359;19;20010;-71
2021/12/15 09:43:42;;;;;;;11.07;5.45;;;;;;;;;;7390051;19;19995;-70
2021/12/15 09:46:14;;;;;;;10.15;5.15;;;;;;;;;;7389258;19;20054;-71
2021/12/15 10:05:28;;;;;;;12.40;7.13;;;;;;;;;;7389201;19;19995;-70
2021/12/15 10:18:58;;;;;;;10.27;5.47;;;;;;;;;;7388000;19;20030;-71
2021/12/15 10:21:29;;;;;;;12.07;5.60;;;;;;;;;;7388533;19;20355;-70
2021/12/15 10:23:56;;;;;;;14.30;6.55;;;;;;;;;;7386302;19;20069;-70
2021/12/15 10:26:23;;;;;;;15.93;5.60;;;;;;;;;;7388513;19;20005;-71
2021/12/15 10:28:52;;;;;;;14.73;6.18;;;;;;;;;;7387699;19;19999;-70
2021/12/15 10:31:20;;;;;;;14.90;6.40;;;;;;;;;;7389434;19;20431;-71
2021/12/15 10:33:53;;;;;;;10.32;5.63;;;;;;;;;;7388666;19;20055;-72
2021/12/15 10:36:18;;;;;;;10.93;5.78;;;;;;;;;;7388336;19;19995;-70
2021/12/15 10:38:46;;;;;;;12.60;5.82;;;;;;;;;;7386631;19;20072;-71
2021/12/15 10:41:17;;;;;;;12.82;5.45;;;;;;;;;;7388035;19;19995;-69
2021/12/15 10:43:45;;;;;;;11.55;6.00;;;;;;;;;;7387948;19;20001;-70
2021/12/15 10:46:43;;;;;;;10.38;5.35;;;;;;;;;;7387485;19;19990;-71
2021/12/15 10:49:16;;;;;;;12.43;5.65;;;;;;;;;;7385790;19;20002;-70
2021/12/15 10:51:48;;;;;;;9.40;4.85;;;;;;;;;;7387120;19;19994;-70
2021/12/15 10:54:18;;;;;;;13.00;6.15;;;;;;;;;;7387116;19;19991;-70
2021/12/15 10:56:56;;;;;;;13.73;6.10;;;;;;;;;;7387970;19;19995;-70
2021/12/15 10:59:27;;;;;;;11.00;5.78;;;;;;;;;;7389712;19;20025;-70
2021/12/15 11:01:54;;;;;;;12.70;5.38;;;;;;;;;;7386947;19;19999;-71
2021/12/15 11:04:43;;;;;;;10.30;5.60;;;;;;;;;;7387701;19;19990;-70
2021/12/15 11:07:24;;;;;;;9.50;5.40;;;;;;;;;;7384878;19;20070;-71
2021/12/15 11:10:00;;;;;;;10.13;5.43;;;;;;;;;;7385833;19;20072;-70
2021/12/15 11:12:45;;;;;;;22.83;6.47;;;;;;;;;;7386237;19;20002;-70
2021/12/15 11:15:17;;;;;;;10.85;5.78;;;;;;;;;;7387504;19;20504;-70
2021/12/15 11:17:43;;;;;;;10.68;5.28;;;;;;;;;;7387255;19;19999;-72
2021/12/15 11:20:33;;;;;;;9.55;4.75;;;;;;;;;;7385893;19;20405;-70
2021/12/15 11:23:09;;;;;;;10.50;5.13;;;;;;;;;;7386681;19;19999;-71
2021/12/15 11:25:53;;;;;;;8.82;4.88;;;;;;;;;;7386277;19;20457;-70
2021/12/15 11:28:31;;;;;;;8.63;4.57;;;;;;;;;;7386279;19;19995;-70
2021/12/15 11:30:59;;;;;;;8.40;4.72;;;;;;;;;;7386538;19;19995;-70
2021/12/15 11:33:32;;;;;;;11.10;5.18;;;;;;;;;;7386639;19;20019;-70
2021/12/15 11:36:15;;;;;;;12.45;5.95;;;;;;;;;;7386573;19;20003;-70
2021/12/15 11:38:47;;;;;;;9.05;5.15;;;;;;;;;;7385123;19;20002;-70
2021/12/15 11:41:15;;;;;;;8.98;5.22;;;;;;;;;;7387015;19;20003;-70
2021/12/15 11:44:05;;;;;;;10.38;4.40;;;;;;;;;;7386771;19;20033;-70
2021/12/15 11:46:35;;;;;;;7.47;4.40;;;;;;;;;;7384664;19;20436;-70
2021/12/15 11:49:02;;;;;;;9.43;5.28;;;;;;;;;;7387817;19;19999;-70
2021/12/15 11:51:32;;;;;;;9.35;4.85;;;;;;;;;;7388954;19;20488;-72
2021/12/15 11:53:58;;;;;;;9.45;4.85;;;;;;;;;;7388253;19;20066;-70
2021/12/15 11:56:33;;;;;;;8.27;5.28;;;;;;;;;;7393732;19;20119;-71
2021/12/15 11:59:21;;;;;;;7.97;4.53;;;;;;;;;;7392375;19;20418;-71
2021/12/15 12:01:58;;;;;;;7.50;4.40;;;;;;;;;;7391954;19;20004;-69
2021/12/15 12:04:40;;;;;;;9.45;4.32;;;;;;;;;;7392657;19;20408;-69
2021/12/15 12:07:14;;;;;;;8.77;4.63;;;;;;;;;;7391600;19;20074;-70
2021/12/15 12:09:43;;;;;;;18.93;8.10;;;;;;;;;;7391784;19;20005;-70
2021/12/15 12:12:09;;;;;;;8.60;4.65;;;;;;;;;;7391192;19;19999;-70
2021/12/15 12:14:50;;;;;;;7.05;3.85;;;;;;;;;;7393504;19;20014;-70
2021/12/15 12:17:20;;;;;;;5.80;3.90;;;;;;;;;;7393021;19;19991;-70
2021/12/15 12:19:48;;;;;;;8.15;4.28;;;;;;;;;;7392049;19;19998;-70
2021/12/15 12:22:15;;;;;;;7.50;4.28;;;;;;;;;;7390064;19;20002;-70
2021/12/15 12:24:44;;;;;;;7.38;4.10;;;;;;;;;;7391924;19;19998;-70
2021/12/15 12:27:10;;;;;;;10.43;5.15;;;;;;;;;;7390865;19;20005;-71
2021/12/15 12:29:36;;;;;;;9.50;4.18;;;;;;;;;;7391479;19;19991;-70
2021/12/15 12:32:04;;;;;;;8.05;5.22;;;;;;;;;;7391261;19;20465;-70
2021/12/15 12:34:30;;;;;;;7.75;5.00;;;;;;;;;;7395529;19;19998;-71
2021/12/15 12:36:55;;;;;;;7.30;4.53;;;;;;;;;;7392232;19;20286;-71
2021/12/15 12:39:29;;;;;;;6.35;3.83;;;;;;;;;;7393589;19;19998;-72
2021/12/15 12:41:55;;;;;;;6.65;3.97;;;;;;;;;;7391063;19;20024;-71
2021/12/15 12:44:22;;;;;;;5.65;4.30;;;;;;;;;;7391827;19;19991;-70
2021/12/15 12:47:04;;;;;;;5.32;4.18;;;;;;;;;;7390416;19;20009;-70
2021/12/15 12:50:15;;;;;;;6.38;4.18;;;;;;;;;;7391235;19;19999;-72
2021/12/15 13:01:14;;;;;;;5.72;3.85;;;;;;;;;;7391490;19;20019;-70
2021/12/15 13:03:41;;;;;;;6.13;3.97;;;;;;;;;;7391800;19;19991;-69
2021/12/15 13:06:12;;;;;;;6.32;3.88;;;;;;;;;;7387992;19;20337;-70
2021/12/15 13:08:44;;;;;;;5.43;3.65;;;;;;;;;;7389744;19;20508;-70
2021/12/15 13:11:33;;;;;;;4.43;3.40;;;;;;;;;;7390742;19;20007;-70
2021/12/15 13:14:14;;;;;;;4.90;3.55;;;;;;;;;;7391270;19;20347;-70
2021/12/15 13:16:46;;;;;;;5.20;3.15;;;;;;;;;;7389521;19;20013;-71
2021/12/15 13:19:30;;;;;;;7.50;3.63;;;;;;;;;;7389929;19;20003;-71
2021/12/15 13:31:01;;;;;;;5.13;2.97;;;;;;;;;;7395052;19;20018;-70
2021/12/15 13:33:33;;;;;;;4.10;3.20;;;;;;;;;;7390643;19;20003;-72
2021/12/15 13:36:13;;;;;;;5.45;3.28;;;;;;;;;;7389785;19;19999;-70
2021/12/15 13:38:43;;;;;;;5.45;3.35;;;;;;;;;;7388805;19;20500;-70
2021/12/15 13:41:19;;;;;;;6.47;3.90;;;;;;;;;;7389706;19;20007;-70
2021/12/15 13:43:47;;;;;;;3.58;3.05;;;;;;;;;;7389813;19;20351;-70
2021/12/15 13:46:32;;;;;;;5.30;3.53;;;;;;;;;;7389023;19;20016;-71
2021/12/15 13:49:06;;;;;;;4.45;3.10;;;;;;;;;;7388795;19;20006;-70
2021/12/15 13:51:52;;;;;;;5.47;2.88;;;;;;;;;;7389186;19;20009;-70
2021/12/15 13:54:33;;;;;;;4.82;3.20;;;;;;;;;;7387993;19;20520;-70
2021/12/15 13:57:02;;;;;;;3.45;2.53;;;;;;;;;;7390013;19;19998;-70
2021/12/15 13:59:37;;;;;;;2.80;2.30;;;;;;;;;;7388523;19;20086;-70
2021/12/15 14:02:15;;;;;;;2.78;2.30;;;;;;;;;;7388966;19;20002;-70
2021/12/15 14:04:52;;;;;;;3.75;2.50;;;;;;;;;;7387691;19;20010;-71
2021/12/15 14:07:39;;;;;;;3.50;2.67;;;;;;;;;;7388029;19;19998;-70
2021/12/15 14:10:10;;;;;;;3.13;2.63;;;;;;;;;;7387797;19;19995;-70
2021/12/15 14:12:44;;;;;;;4.38;3.10;;;;;;;;;;7387407;19;20074;-71
2021/12/15 14:15:25;;;;;;;3.65;2.67;;;;;;;;;;7388118;19;19999;-71
2021/12/15 14:18:11;;;;;;;4.60;3.40;;;;;;;;;;7389719;19;19995;-70
2021/12/15 14:21:03;;;;;;;3.60;2.72;;;;;;;;;;7392928;19;20071;-70
2021/12/15 14:23:43;;;;;;;4.38;3.40;;;;;;;;;;7387927;19;20496;-70
2021/12/15 14:26:16;;;;;;;6.22;4.35;;;;;;;;;;7388218;19;19998;-70
2021/12/15 14:28:46;;;;;;;6.80;3.97;;;;;;;;;;7389682;19;19999;-70
2021/12/15 14:31:23;;;;;;;4.50;3.72;;;;;;;;;;7387110;19;20346;-70
2021/12/15 14:33:52;;;;;;;5.90;4.07;;;;;;;;;;7388556;19;20019;-70
2021/12/15 14:36:21;;;;;;;7.13;5.00;;;;;;;;;;7388814;19;19995;-70
2021/12/15 14:38:53;;;;;;;6.70;4.72;;;;;;;;;;7386609;19;20003;-71
2021/12/15 14:41:28;;;;;;;7.68;5.05;;;;;;;;;;7388446;19;20027;-70
2021/12/15 14:44:01;;;;;;;5.93;3.97;;;;;;;;;;7390011;19;20464;-70
2021/12/15 14:46:32;;;;;;;4.93;3.95;;;;;;;;;;7386922;19;20460;-71
2021/12/15 14:48:59;;;;;;;5.32;4.00;;;;;;;;;;7386536;19;20234;-71
2021/12/15 14:51:24;;;;;;;6.25;4.80;;;;;;;;;;7386254;19;20026;-70
2021/12/15 14:53:50;;;;;;;7.28;4.43;;;;;;;;;;7391051;19;20002;-70
2021/12/15 14:56:16;;;;;;;4.88;4.07;;;;;;;;;;7391368;19;20016;-70
2021/12/15 14:58:41;;;;;;;4.13;3.45;;;;;;;;;;7390721;19;20015;-70
2021/12/15 15:01:06;;;;;;;4.18;3.53;;;;;;;;;;7386599;19;20046;-71
2021/12/15 15:03:35;;;;;;;4.70;3.45;;;;;;;;;;7387109;19;20025;-70
2021/12/15 15:06:01;;;;;;;4.95;3.58;;;;;;;;;;7386955;19;20070;-70
2021/12/15 15:08:31;;;;;;;4.72;3.95;;;;;;;;;;7389198;19;20790;-70
2021/12/15 15:10:59;;;;;;;4.75;3.63;;;;;;;;;;7387187;19;19995;-70
2021/12/15 15:13:25;;;;;;;5.90;4.30;;;;;;;;;;7386583;19;20508;-70
2021/12/15 15:15:58;;;;;;;6.80;4.30;;;;;;;;;;7387282;19;20472;-71
2021/12/15 15:18:31;;;;;;;8.07;5.10;;;;;;;;;;7386434;19;19991;-71
2021/12/15 15:21:12;;;;;;;6.45;4.75;;;;;;;;;;7387016;19;19991;-70
2021/12/15 15:23:42;;;;;;;8.95;5.63;;;;;;;;;;7385975;19;20002;-70
2021/12/15 15:26:10;;;;;;;6.88;4.72;;;;;;;;;;7386238;19;20001;-71
2021/12/15 15:28:40;;;;;;;6.35;4.88;;;;;;;;;;7386863;19;19995;-71
2021/12/15 15:31:09;;;;;;;8.27;4.95;;;;;;;;;;7394129;19;20003;-70
2021/12/15 15:33:36;;;;;;;7.88;5.15;;;;;;;;;;7394056;19;19998;-70
2021/12/15 15:36:28;;;;;;;8.57;5.43;;;;;;;;;;7394819;19;20812;-71
2021/12/15 15:38:55;;;;;;;8.25;5.25;;;;;;;;;;7392728;19;20007;-70
2021/12/15 15:41:30;;;;;;;6.60;4.82;;;;;;;;;;7393310;19;20005;-70
2021/12/15 15:44:03;;;;;;;6.38;4.47;;;;;;;;;;7393965;19;19995;-71
2021/12/15 15:46:33;;;;;;;5.93;4.13;;;;;;;;;;7392475;19;20407;-69
2021/12/15 15:48:59;;;;;;;5.63;4.22;;;;;;;;;;7392898;19;20460;-70
2021/12/15 15:51:29;;;;;;;6.63;4.95;;;;;;;;;;7392473;19;19994;-71
2021/12/15 15:54:02;;;;;;;9.63;5.45;;;;;;;;;;7393092;19;20404;-70
2021/12/15 15:56:29;;;;;;;7.25;4.68;;;;;;;;;;7393872;19;19995;-70
2021/12/15 15:59:03;;;;;;;5.53;3.95;;;;;;;;;;7395142;19;20015;-70
2021/12/15 16:01:30;;;;;;;6.30;4.27;;;;;;;;;;7392566;19;20071;-71
2021/12/15 16:03:58;;;;;;;6.00;4.28;;;;;;;;;;7393236;19;20109;-70
2021/12/15 16:06:25;;;;;;;5.63;4.40;;;;;;;;;;7391967;19;19991;-70
2021/12/15 16:08:55;;;;;;;6.97;4.03;;;;;;;;;;7391665;19;19998;-70
2021/12/15 16:11:25;;;;;;;6.35;4.30;;;;;;;;;;7392375;19;19999;-70
2021/12/15 16:13:56;;;;;;;7.30;4.45;;;;;;;;;;7392630;19;20022;-70
2021/12/15 16:16:33;;;;;;;7.13;5.28;;;;;;;;;;7393108;19;20003;-70
2021/12/15 16:19:11;;;;;;;6.60;4.55;;;;;;;;;;7392032;19;20006;-70
2021/12/15 16:24:12;;;;;;;6.35;4.13;;;;;;;;;;7391801;19;19995;-70
2021/12/15 16:26:38;;;;;;;6.68;4.93;;;;;;;;;;7391526;19;20050;-70
2021/12/15 16:29:19;;;;;;;6.80;4.30;;;;;;;;;;7391287;19;20011;-73